Meath Environmental Platform

Observations for Trim Market St

Time AQI Temp °C Hum % Pres Pa CO μg/m³ H₂S μg/m³ NO μg/m³ NO₂ μg/m³ O₃ μg/m³ SO₂ μg/m³ PM1 μg/m³ PM2.5 μg/m³ PM10 μg/m³
Monday 17 August 2026
04:20 2 18.4 78 2,147,483,647 0.08 0 1.76 2.98 53.09 0 1.43 2.67 5.22
04:13 2 18.4 78 2,147,483,647 0.08 0 1.82 3.55 52.34 0 0.71 2.67 5.8
04:11 2 18.4 78 2,147,483,647 0.1 0 1.79 3.63 51.06 0 1.43 1.72 4.06
04:09 2 18.4 78 2,147,483,647 0.1 0 1.83 3.52 48.41 0 0.71 2.66 5.8
04:05 2 18.4 78 2,147,483,647 0.12 0 1.85 3.38 52.39 0 2.14 3.14 7.53
04:04 2 18.4 78 2,147,483,647 0.11 0 1.84 3.28 52.1 0 2.14 3.61 6.38
04:03 2 18.4 78 2,147,483,647 0.12 0 1.86 3.39 50.13 0 2.85 3.61 6.95
04:01 2 18.4 78 2,147,483,647 0.12 0 1.79 3.32 50.77 0 3.56 4.56 7.53
04:00 2 18.4 78 2,147,483,647 0.11 0 1.84 3.39 54.25 0 2.85 5.03 8.11
03:59 2 18.5 78 2,147,483,647 0.12 0 1.8 3.3 49.68 0 2.85 4.56 8.11
03:58 2 18.4 78 2,147,483,647 0.12 0 1.64 3.39 52.65 0 3.56 4.56 8.11
03:57 2 18.4 78 2,147,483,647 0.14 0 1.83 3.27 51.44 0 4.28 5.03 8.69
03:56 2 18.4 78 2,147,483,647 0.14 0 1.83 3.49 47.88 0 4.28 5.98 9.84
03:55 2 18.4 78 2,147,483,647 0.14 0 1.71 3.3 50.9 0 2.85 3.61 6.38
03:50 2 18.4 78 2,147,483,647 0.1 0 1.78 3.09 48.99 0 2.14 3.61 6.38
03:49 2 18.4 78 2,147,483,647 0.11 0 1.78 3.52 57.04 0 2.85 4.09 9.84
03:47 2 18.5 78 2,147,483,647 0.13 0 1.8 3.15 52.35 0 2.14 3.14 6.95
03:44 2 18.4 78 2,147,483,647 0.11 0 1.71 3.31 52.4 0 2.85 4.09 6.95
03:34 2 18.5 78 2,147,483,647 0.04 0 1.74 3.35 47.65 0 0 0.77 2.91
03:33 2 18.5 78 2,147,483,647 0.04 0 1.74 3.17 53.81 0 0 0.77 2.91